KCDN/CDN METAR and TAF weather

Enter ICAO airport designator
Station Type Date Time Source
KCDN METAR 2020/02/16 20:15 UTC NOAA

KCDN 162015Z AUTO 33004KT 3SM -RA FEW016 BKN033 OVC080 08/07 A3017 RMK AO2


Station Type Date Time Source
KCDN Decoded METAR 2020/02/16 20:15 UTC NOAA

Station name not available
Feb 16, 2020 - 03:15 PM EST / 2020.02.16 2015 UTC
Wind: from the NNW (330 degrees) at 5 MPH (4 KT):0
Visibility: 3 mile(s):0
Sky conditions: overcast
Weather: light rain
Temperature: 46 F (8 C)
Dew Point: 44 F (7 C)
Relative Humidity: 93%
Pressure (altimeter): 30.17 in. Hg (1021 hPa)
ob: KCDN 162015Z AUTO 33004KT 3SM -RA FEW016 BKN033 OVC080 08/07 A3017 RMK AO2
cycle: 20

Station Type Date Time Source
KCDN TAF UTC NOAA

Error!

Example: see airport list